sensor_id;sensor_type;location;lat;lon;timestamp;P1;durP1;ratioP1;P2;durP2;ratioP2
21301;SDS011;10810;48.270;9.996;2023-05-07T00:02:46;6.23;;;2.30;;
21301;SDS011;10810;48.270;9.996;2023-05-07T00:05:18;4.50;;;2.50;;
21301;SDS011;10810;48.270;9.996;2023-05-07T00:09:56;5.37;;;2.37;;
21301;SDS011;10810;48.270;9.996;2023-05-07T00:11:37;5.90;;;2.70;;
21301;SDS011;10810;48.270;9.996;2023-05-07T00:14:29;3.57;;;2.00;;
21301;SDS011;10810;48.270;9.996;2023-05-07T00:17:57;3.13;;;2.17;;
21301;SDS011;10810;48.270;9.996;2023-05-07T00:23:52;3.80;;;2.10;;
21301;SDS011;10810;48.270;9.996;2023-05-07T00:26:43;4.67;;;2.40;;
21301;SDS011;10810;48.270;9.996;2023-05-07T00:29:24;4.83;;;2.60;;
21301;SDS011;10810;48.270;9.996;2023-05-07T00:32:13;3.50;;;2.23;;
21301;SDS011;10810;48.270;9.996;2023-05-07T00:34:44;3.33;;;2.30;;
21301;SDS011;10810;48.270;9.996;2023-05-07T00:37:28;5.93;;;2.53;;
21301;SDS011;10810;48.270;9.996;2023-05-07T00:43:11;5.07;;;2.57;;
21301;SDS011;10810;48.270;9.996;2023-05-07T00:45:38;6.57;;;2.90;;
21301;SDS011;10810;48.270;9.996;2023-05-07T00:48:22;4.80;;;2.80;;
21301;SDS011;10810;48.270;9.996;2023-05-07T00:51:17;6.63;;;3.00;;
21301;SDS011;10810;48.270;9.996;2023-05-07T00:54:14;4.80;;;2.77;;
21301;SDS011;10810;48.270;9.996;2023-05-07T00:56:44;4.33;;;2.70;;
21301;SDS011;10810;48.270;9.996;2023-05-07T01:02:48;5.73;;;2.87;;
21301;SDS011;10810;48.270;9.996;2023-05-07T01:05:44;5.17;;;2.70;;
21301;SDS011;10810;48.270;9.996;2023-05-07T01:08:32;5.77;;;2.90;;
21301;SDS011;10810;48.270;9.996;2023-05-07T01:11:15;5.63;;;2.70;;
21301;SDS011;10810;48.270;9.996;2023-05-07T01:13:54;5.83;;;2.40;;
21301;SDS011;10810;48.270;9.996;2023-05-07T01:16:45;5.07;;;2.50;;
21301;SDS011;10810;48.270;9.996;2023-05-07T01:19:34;7.10;;;2.47;;
21301;SDS011;10810;48.270;9.996;2023-05-07T01:25:00;3.93;;;2.30;;
21301;SDS011;10810;48.270;9.996;2023-05-07T01:27:47;3.87;;;2.37;;
21301;SDS011;10810;48.270;9.996;2023-05-07T01:30:27;4.33;;;2.83;;
21301;SDS011;10810;48.270;9.996;2023-05-07T01:33:18;3.90;;;2.60;;
21301;SDS011;10810;48.270;9.996;2023-05-07T01:36:02;7.43;;;2.40;;
21301;SDS011;10810;48.270;9.996;2023-05-07T01:38:45;5.00;;;2.57;;
21301;SDS011;10810;48.270;9.996;2023-05-07T01:41:16;6.27;;;2.33;;
21301;SDS011;10810;48.270;9.996;2023-05-07T01:43:46;3.83;;;2.40;;
21301;SDS011;10810;48.270;9.996;2023-05-07T01:46:16;3.17;;;2.20;;
21301;SDS011;10810;48.270;9.996;2023-05-07T01:48:48;4.77;;;2.23;;
21301;SDS011;10810;48.270;9.996;2023-05-07T01:51:16;4.20;;;2.37;;
21301;SDS011;10810;48.270;9.996;2023-05-07T01:56:37;4.60;;;2.53;;
21301;SDS011;10810;48.270;9.996;2023-05-07T01:59:34;7.50;;;3.20;;
21301;SDS011;10810;48.270;9.996;2023-05-07T02:02:17;5.27;;;2.57;;
21301;SDS011;10810;48.270;9.996;2023-05-07T02:04:51;6.67;;;2.83;;
21301;SDS011;10810;48.270;9.996;2023-05-07T02:07:26;5.07;;;2.83;;
21301;SDS011;10810;48.270;9.996;2023-05-07T02:10:00;4.60;;;2.77;;
21301;SDS011;10810;48.270;9.996;2023-05-07T02:12:32;4.37;;;2.77;;
21301;SDS011;10810;48.270;9.996;2023-05-07T02:18:03;5.03;;;2.80;;
21301;SDS011;10810;48.270;9.996;2023-05-07T02:21:00;4.80;;;2.80;;
21301;SDS011;10810;48.270;9.996;2023-05-07T02:23:28;3.80;;;2.33;;
21301;SDS011;10810;48.270;9.996;2023-05-07T02:28:52;8.47;;;2.80;;
21301;SDS011;10810;48.270;9.996;2023-05-07T02:31:26;4.67;;;2.60;;
21301;SDS011;10810;48.270;9.996;2023-05-07T02:34:18;4.47;;;2.60;;
21301;SDS011;10810;48.270;9.996;2023-05-07T02:36:52;3.83;;;2.30;;
21301;SDS011;10810;48.270;9.996;2023-05-07T02:39:33;4.57;;;2.70;;
21301;SDS011;10810;48.270;9.996;2023-05-07T02:45:02;4.47;;;2.33;;
21301;SDS011;10810;48.270;9.996;2023-05-07T02:47:57;3.97;;;2.30;;
21301;SDS011;10810;48.270;9.996;2023-05-07T02:50:41;4.90;;;2.70;;
21301;SDS011;10810;48.270;9.996;2023-05-07T02:53:56;5.17;;;2.80;;
21301;SDS011;10810;48.270;9.996;2023-05-07T02:56:18;4.37;;;2.53;;
21301;SDS011;10810;48.270;9.996;2023-05-07T03:01:35;4.50;;;2.60;;
21301;SDS011;10810;48.270;9.996;2023-05-07T03:04:17;4.43;;;2.43;;
21301;SDS011;10810;48.270;9.996;2023-05-07T03:06:56;5.33;;;2.37;;
21301;SDS011;10810;48.270;9.996;2023-05-07T03:09:37;5.37;;;2.60;;
21301;SDS011;10810;48.270;9.996;2023-05-07T03:12:04;4.63;;;2.40;;
21301;SDS011;10810;48.270;9.996;2023-05-07T03:14:33;5.00;;;2.37;;
21301;SDS011;10810;48.270;9.996;2023-05-07T03:17:02;5.40;;;2.67;;
21301;SDS011;10810;48.270;9.996;2023-05-07T03:20:11;4.13;;;2.70;;
21301;SDS011;10810;48.270;9.996;2023-05-07T03:23:04;4.90;;;2.63;;
21301;SDS011;10810;48.270;9.996;2023-05-07T03:25:39;5.87;;;2.60;;
21301;SDS011;10810;48.270;9.996;2023-05-07T03:28:23;4.63;;;2.83;;
21301;SDS011;10810;48.270;9.996;2023-05-07T03:30:55;5.23;;;2.90;;
21301;SDS011;10810;48.270;9.996;2023-05-07T03:33:25;4.50;;;2.93;;
21301;SDS011;10810;48.270;9.996;2023-05-07T03:35:58;5.57;;;3.03;;
21301;SDS011;10810;48.270;9.996;2023-05-07T03:38:43;5.33;;;3.07;;
21301;SDS011;10810;48.270;9.996;2023-05-07T03:41:30;5.63;;;3.17;;
21301;SDS011;10810;48.270;9.996;2023-05-07T03:44:02;6.83;;;3.37;;
21301;SDS011;10810;48.270;9.996;2023-05-07T03:46:37;5.63;;;3.57;;
21301;SDS011;10810;48.270;9.996;2023-05-07T03:49:22;8.63;;;3.50;;
21301;SDS011;10810;48.270;9.996;2023-05-07T03:52:27;6.20;;;3.50;;
21301;SDS011;10810;48.270;9.996;2023-05-07T03:55:01;7.50;;;3.87;;
21301;SDS011;10810;48.270;9.996;2023-05-07T03:57:48;6.30;;;3.30;;
21301;SDS011;10810;48.270;9.996;2023-05-07T04:00:31;5.40;;;3.00;;
21301;SDS011;10810;48.270;9.996;2023-05-07T04:03:12;4.67;;;2.73;;
21301;SDS011;10810;48.270;9.996;2023-05-07T04:08:32;5.63;;;3.47;;
21301;SDS011;10810;48.270;9.996;2023-05-07T04:11:20;4.43;;;2.80;;
21301;SDS011;10810;48.270;9.996;2023-05-07T04:14:07;4.77;;;2.80;;
21301;SDS011;10810;48.270;9.996;2023-05-07T04:16:35;6.23;;;2.90;;
21301;SDS011;10810;48.270;9.996;2023-05-07T04:21:58;5.40;;;2.90;;
21301;SDS011;10810;48.270;9.996;2023-05-07T04:24:33;6.30;;;3.23;;
21301;SDS011;10810;48.270;9.996;2023-05-07T04:27:08;8.17;;;3.60;;
21301;SDS011;10810;48.270;9.996;2023-05-07T04:29:55;6.90;;;3.43;;
21301;SDS011;10810;48.270;9.996;2023-05-07T04:32:39;6.20;;;3.37;;
21301;SDS011;10810;48.270;9.996;2023-05-07T04:35:16;8.40;;;3.57;;
21301;SDS011;10810;48.270;9.996;2023-05-07T04:37:43;8.73;;;3.57;;
21301;SDS011;10810;48.270;9.996;2023-05-07T04:40:11;6.70;;;3.47;;
21301;SDS011;10810;48.270;9.996;2023-05-07T04:42:38;5.60;;;3.03;;
21301;SDS011;10810;48.270;9.996;2023-05-07T04:45:05;6.13;;;3.40;;
21301;SDS011;10810;48.270;9.996;2023-05-07T04:47:33;8.83;;;3.57;;
21301;SDS011;10810;48.270;9.996;2023-05-07T04:50:00;9.17;;;3.23;;
21301;SDS011;10810;48.270;9.996;2023-05-07T04:52:32;4.70;;;2.93;;
21301;SDS011;10810;48.270;9.996;2023-05-07T04:55:03;5.73;;;2.90;;
21301;SDS011;10810;48.270;9.996;2023-05-07T04:57:30;5.97;;;3.00;;
21301;SDS011;10810;48.270;9.996;2023-05-07T05:00:08;5.23;;;3.30;;
21301;SDS011;10810;48.270;9.996;2023-05-07T05:02:35;6.60;;;3.30;;
21301;SDS011;10810;48.270;9.996;2023-05-07T05:05:02;7.37;;;3.30;;
21301;SDS011;10810;48.270;9.996;2023-05-07T05:07:31;7.17;;;3.33;;
21301;SDS011;10810;48.270;9.996;2023-05-07T05:09:58;4.80;;;3.10;;
21301;SDS011;10810;48.270;9.996;2023-05-07T05:12:25;6.50;;;3.80;;
21301;SDS011;10810;48.270;9.996;2023-05-07T05:14:55;5.47;;;3.07;;
21301;SDS011;10810;48.270;9.996;2023-05-07T05:17:25;6.00;;;3.47;;
21301;SDS011;10810;48.270;9.996;2023-05-07T05:19:52;8.93;;;3.80;;
21301;SDS011;10810;48.270;9.996;2023-05-07T05:22:19;6.40;;;3.37;;
21301;SDS011;10810;48.270;9.996;2023-05-07T05:24:48;7.40;;;3.70;;
21301;SDS011;10810;48.270;9.996;2023-05-07T05:27:15;7.23;;;3.90;;
21301;SDS011;10810;48.270;9.996;2023-05-07T05:29:42;7.80;;;3.60;;
21301;SDS011;10810;48.270;9.996;2023-05-07T05:32:09;6.80;;;4.00;;
21301;SDS011;10810;48.270;9.996;2023-05-07T05:34:36;12.80;;;6.13;;
21301;SDS011;10810;48.270;9.996;2023-05-07T05:37:03;13.87;;;5.73;;
21301;SDS011;10810;48.270;9.996;2023-05-07T05:39:30;10.33;;;5.50;;
21301;SDS011;10810;48.270;9.996;2023-05-07T05:41:58;12.10;;;5.73;;
21301;SDS011;10810;48.270;9.996;2023-05-07T05:44:25;9.60;;;5.30;;
21301;SDS011;10810;48.270;9.996;2023-05-07T05:46:56;9.80;;;5.13;;
21301;SDS011;10810;48.270;9.996;2023-05-07T05:49:30;10.67;;;5.60;;
21301;SDS011;10810;48.270;9.996;2023-05-07T05:51:57;9.57;;;5.17;;
21301;SDS011;10810;48.270;9.996;2023-05-07T05:54:24;12.07;;;5.80;;
21301;SDS011;10810;48.270;9.996;2023-05-07T05:56:53;10.03;;;5.60;;
21301;SDS011;10810;48.270;9.996;2023-05-07T05:59:23;10.50;;;4.73;;
21301;SDS011;10810;48.270;9.996;2023-05-07T06:01:52;11.23;;;5.53;;
21301;SDS011;10810;48.270;9.996;2023-05-07T06:04:19;9.57;;;5.20;;
21301;SDS011;10810;48.270;9.996;2023-05-07T06:06:47;12.07;;;6.30;;
21301;SDS011;10810;48.270;9.996;2023-05-07T06:09:14;11.40;;;5.87;;
21301;SDS011;10810;48.270;9.996;2023-05-07T06:11:41;11.87;;;5.97;;
21301;SDS011;10810;48.270;9.996;2023-05-07T06:14:10;11.73;;;5.50;;
21301;SDS011;10810;48.270;9.996;2023-05-07T06:16:38;12.70;;;5.30;;
21301;SDS011;10810;48.270;9.996;2023-05-07T06:19:08;12.67;;;6.53;;
21301;SDS011;10810;48.270;9.996;2023-05-07T06:21:43;13.00;;;6.63;;
21301;SDS011;10810;48.270;9.996;2023-05-07T06:24:12;12.90;;;7.07;;
21301;SDS011;10810;48.270;9.996;2023-05-07T06:26:39;12.67;;;6.57;;
21301;SDS011;10810;48.270;9.996;2023-05-07T06:29:06;12.87;;;6.87;;
21301;SDS011;10810;48.270;9.996;2023-05-07T06:31:33;12.27;;;6.33;;
21301;SDS011;10810;48.270;9.996;2023-05-07T06:34:02;12.97;;;6.83;;
21301;SDS011;10810;48.270;9.996;2023-05-07T06:36:34;11.93;;;6.33;;
21301;SDS011;10810;48.270;9.996;2023-05-07T06:39:03;11.50;;;5.67;;
21301;SDS011;10810;48.270;9.996;2023-05-07T06:41:30;12.83;;;6.80;;
21301;SDS011;10810;48.270;9.996;2023-05-07T06:44:21;12.70;;;6.90;;
21301;SDS011;10810;48.270;9.996;2023-05-07T06:46:48;12.67;;;6.67;;
21301;SDS011;10810;48.270;9.996;2023-05-07T06:49:17;13.30;;;7.00;;
21301;SDS011;10810;48.270;9.996;2023-05-07T06:51:44;12.33;;;6.50;;
21301;SDS011;10810;48.270;9.996;2023-05-07T06:54:11;14.00;;;6.77;;
21301;SDS011;10810;48.270;9.996;2023-05-07T06:56:43;11.17;;;6.17;;
21301;SDS011;10810;48.270;9.996;2023-05-07T06:59:23;11.60;;;6.53;;
21301;SDS011;10810;48.270;9.996;2023-05-07T07:02:02;10.70;;;6.00;;
21301;SDS011;10810;48.270;9.996;2023-05-07T07:04:57;10.13;;;5.87;;
21301;SDS011;10810;48.270;9.996;2023-05-07T07:07:26;10.60;;;5.57;;
21301;SDS011;10810;48.270;9.996;2023-05-07T07:10:17;10.07;;;5.93;;
21301;SDS011;10810;48.270;9.996;2023-05-07T07:12:46;11.53;;;6.10;;
21301;SDS011;10810;48.270;9.996;2023-05-07T07:15:27;10.37;;;5.57;;
21301;SDS011;10810;48.270;9.996;2023-05-07T07:18:11;9.53;;;5.23;;
21301;SDS011;10810;48.270;9.996;2023-05-07T07:26:35;8.63;;;5.10;;
21301;SDS011;10810;48.270;9.996;2023-05-07T07:29:30;9.73;;;5.30;;
21301;SDS011;10810;48.270;9.996;2023-05-07T07:31:57;10.10;;;4.80;;
21301;SDS011;10810;48.270;9.996;2023-05-07T07:34:59;9.57;;;4.90;;
21301;SDS011;10810;48.270;9.996;2023-05-07T07:37:28;8.27;;;5.00;;
21301;SDS011;10810;48.270;9.996;2023-05-07T07:40:00;7.10;;;4.80;;
21301;SDS011;10810;48.270;9.996;2023-05-07T07:42:28;10.80;;;5.10;;
21301;SDS011;10810;48.270;9.996;2023-05-07T07:44:55;10.67;;;4.80;;
21301;SDS011;10810;48.270;9.996;2023-05-07T07:47:23;8.40;;;4.63;;
21301;SDS011;10810;48.270;9.996;2023-05-07T07:49:50;8.73;;;4.80;;
21301;SDS011;10810;48.270;9.996;2023-05-07T07:52:17;9.23;;;5.20;;
21301;SDS011;10810;48.270;9.996;2023-05-07T07:54:45;7.33;;;4.80;;
21301;SDS011;10810;48.270;9.996;2023-05-07T07:57:13;8.43;;;5.00;;
21301;SDS011;10810;48.270;9.996;2023-05-07T07:59:40;6.85;;;4.32;;
21301;SDS011;10810;48.270;9.996;2023-05-07T08:02:08;8.03;;;4.80;;
21301;SDS011;10810;48.270;9.996;2023-05-07T08:04:35;9.63;;;4.73;;
21301;SDS011;10810;48.270;9.996;2023-05-07T08:07:02;6.97;;;4.57;;
21301;SDS011;10810;48.270;9.996;2023-05-07T08:09:29;5.78;;;4.13;;
21301;SDS011;10810;48.270;9.996;2023-05-07T08:11:56;8.95;;;4.20;;
21301;SDS011;10810;48.270;9.996;2023-05-07T08:18:03;6.20;;;3.95;;
21301;SDS011;10810;48.270;9.996;2023-05-07T08:20:50;9.07;;;4.60;;
21301;SDS011;10810;48.270;9.996;2023-05-07T08:23:19;10.03;;;4.90;;
21301;SDS011;10810;48.270;9.996;2023-05-07T08:25:46;9.25;;;4.57;;
21301;SDS011;10810;48.270;9.996;2023-05-07T08:28:16;8.90;;;4.00;;
21301;SDS011;10810;48.270;9.996;2023-05-07T08:30:44;8.93;;;4.50;;
21301;SDS011;10810;48.270;9.996;2023-05-07T08:33:20;8.77;;;5.10;;
21301;SDS011;10810;48.270;9.996;2023-05-07T08:36:01;7.50;;;4.50;;
21301;SDS011;10810;48.270;9.996;2023-05-07T08:38:46;7.93;;;4.40;;
21301;SDS011;10810;48.270;9.996;2023-05-07T08:41:48;8.13;;;4.72;;
21301;SDS011;10810;48.270;9.996;2023-05-07T08:44:12;8.88;;;4.63;;
21301;SDS011;10810;48.270;9.996;2023-05-07T08:46:45;8.68;;;4.72;;
21301;SDS011;10810;48.270;9.996;2023-05-07T08:52:11;7.80;;;4.32;;
21301;SDS011;10810;48.270;9.996;2023-05-07T08:54:51;6.82;;;4.07;;
21301;SDS011;10810;48.270;9.996;2023-05-07T08:57:24;6.90;;;4.18;;
21301;SDS011;10810;48.270;9.996;2023-05-07T09:00:08;7.03;;;4.38;;
21301;SDS011;10810;48.270;9.996;2023-05-07T09:02:37;5.63;;;3.72;;
21301;SDS011;10810;48.270;9.996;2023-05-07T09:05:13;5.95;;;3.72;;
21301;SDS011;10810;48.270;9.996;2023-05-07T09:07:41;5.75;;;3.50;;
21301;SDS011;10810;48.270;9.996;2023-05-07T09:10:09;6.15;;;3.72;;
21301;SDS011;10810;48.270;9.996;2023-05-07T09:12:37;5.45;;;3.50;;
21301;SDS011;10810;48.270;9.996;2023-05-07T09:15:05;5.00;;;3.22;;
21301;SDS011;10810;48.270;9.996;2023-05-07T09:17:35;7.15;;;3.85;;
21301;SDS011;10810;48.270;9.996;2023-05-07T09:20:02;7.90;;;4.10;;
21301;SDS011;10810;48.270;9.996;2023-05-07T09:22:33;10.32;;;4.20;;
21301;SDS011;10810;48.270;9.996;2023-05-07T09:25:02;8.02;;;3.78;;
21301;SDS011;10810;48.270;9.996;2023-05-07T09:27:30;7.03;;;4.70;;
21301;SDS011;10810;48.270;9.996;2023-05-07T09:29:58;7.65;;;4.07;;
21301;SDS011;10810;48.270;9.996;2023-05-07T09:32:29;7.90;;;4.00;;
21301;SDS011;10810;48.270;9.996;2023-05-07T09:34:56;7.03;;;3.65;;
21301;SDS011;10810;48.270;9.996;2023-05-07T09:37:54;5.38;;;3.15;;
21301;SDS011;10810;48.270;9.996;2023-05-07T09:40:20;4.03;;;2.90;;
21301;SDS011;10810;48.270;9.996;2023-05-07T09:42:49;7.15;;;2.78;;
21301;SDS011;10810;48.270;9.996;2023-05-07T09:45:21;5.85;;;3.22;;
21301;SDS011;10810;48.270;9.996;2023-05-07T09:47:48;4.03;;;2.80;;
21301;SDS011;10810;48.270;9.996;2023-05-07T09:50:19;4.07;;;2.90;;
21301;SDS011;10810;48.270;9.996;2023-05-07T09:52:55;3.90;;;2.88;;
21301;SDS011;10810;48.270;9.996;2023-05-07T09:55:22;5.50;;;3.50;;
21301;SDS011;10810;48.270;9.996;2023-05-07T09:57:50;11.43;;;3.40;;
21301;SDS011;10810;48.270;9.996;2023-05-07T10:00:18;5.72;;;2.97;;
21301;SDS011;10810;48.270;9.996;2023-05-07T10:02:47;3.90;;;2.95;;
21301;SDS011;10810;48.270;9.996;2023-05-07T10:05:17;4.22;;;2.90;;
21301;SDS011;10810;48.270;9.996;2023-05-07T10:07:45;5.53;;;2.88;;
21301;SDS011;10810;48.270;9.996;2023-05-07T10:10:14;4.53;;;2.95;;
21301;SDS011;10810;48.270;9.996;2023-05-07T10:12:42;5.40;;;2.92;;
21301;SDS011;10810;48.270;9.996;2023-05-07T10:15:10;3.38;;;2.60;;
21301;SDS011;10810;48.270;9.996;2023-05-07T10:17:38;4.82;;;2.92;;
21301;SDS011;10810;48.270;9.996;2023-05-07T10:20:06;3.63;;;2.60;;
21301;SDS011;10810;48.270;9.996;2023-05-07T10:22:37;4.15;;;2.30;;
21301;SDS011;10810;48.270;9.996;2023-05-07T10:25:06;4.75;;;2.30;;
21301;SDS011;10810;48.270;9.996;2023-05-07T10:27:41;4.03;;;2.40;;
21301;SDS011;10810;48.270;9.996;2023-05-07T10:30:12;5.75;;;2.63;;
21301;SDS011;10810;48.270;9.996;2023-05-07T10:32:49;5.68;;;2.70;;
21301;SDS011;10810;48.270;9.996;2023-05-07T10:35:17;3.92;;;2.75;;
21301;SDS011;10810;48.270;9.996;2023-05-07T10:37:47;4.93;;;3.10;;
21301;SDS011;10810;48.270;9.996;2023-05-07T10:40:17;7.63;;;2.92;;
21301;SDS011;10810;48.270;9.996;2023-05-07T10:42:57;4.65;;;2.97;;
21301;SDS011;10810;48.270;9.996;2023-05-07T10:45:25;7.32;;;3.25;;
21301;SDS011;10810;48.270;9.996;2023-05-07T10:48:06;4.63;;;2.85;;
21301;SDS011;10810;48.270;9.996;2023-05-07T10:50:34;5.72;;;2.90;;
21301;SDS011;10810;48.270;9.996;2023-05-07T10:58:55;7.22;;;2.50;;
21301;SDS011;10810;48.270;9.996;2023-05-07T11:01:49;5.18;;;2.80;;
21301;SDS011;10810;48.270;9.996;2023-05-07T11:04:17;3.40;;;2.60;;
21301;SDS011;10810;48.270;9.996;2023-05-07T11:10:02;3.90;;;2.58;;
21301;SDS011;10810;48.270;9.996;2023-05-07T11:12:49;3.97;;;2.60;;
21301;SDS011;10810;48.270;9.996;2023-05-07T11:15:37;3.97;;;2.42;;
21301;SDS011;10810;48.270;9.996;2023-05-07T11:18:09;5.05;;;2.45;;
21301;SDS011;10810;48.270;9.996;2023-05-07T11:20:44;4.30;;;2.42;;
21301;SDS011;10810;48.270;9.996;2023-05-07T11:26:41;3.25;;;2.30;;
21301;SDS011;10810;48.270;9.996;2023-05-07T11:29:10;3.75;;;2.50;;
21301;SDS011;10810;48.270;9.996;2023-05-07T11:31:39;3.90;;;2.40;;
21301;SDS011;10810;48.270;9.996;2023-05-07T11:34:06;6.35;;;2.50;;
21301;SDS011;10810;48.270;9.996;2023-05-07T11:36:35;4.05;;;2.33;;
21301;SDS011;10810;48.270;9.996;2023-05-07T11:39:22;4.07;;;2.33;;
21301;SDS011;10810;48.270;9.996;2023-05-07T11:41:51;3.88;;;2.20;;
21301;SDS011;10810;48.270;9.996;2023-05-07T11:44:18;4.30;;;2.60;;
21301;SDS011;10810;48.270;9.996;2023-05-07T11:46:46;3.22;;;2.25;;
21301;SDS011;10810;48.270;9.996;2023-05-07T11:49:14;3.35;;;2.15;;
21301;SDS011;10810;48.270;9.996;2023-05-07T11:51:41;3.20;;;2.03;;
21301;SDS011;10810;48.270;9.996;2023-05-07T11:54:11;3.75;;;2.38;;
21301;SDS011;10810;48.270;9.996;2023-05-07T11:56:43;3.75;;;2.28;;
21301;SDS011;10810;48.270;9.996;2023-05-07T11:59:11;3.15;;;2.20;;
21301;SDS011;10810;48.270;9.996;2023-05-07T12:01:38;2.88;;;2.17;;
21301;SDS011;10810;48.270;9.996;2023-05-07T12:04:06;2.55;;;2.05;;
21301;SDS011;10810;48.270;9.996;2023-05-07T12:06:35;3.35;;;2.13;;
21301;SDS011;10810;48.270;9.996;2023-05-07T12:09:04;3.88;;;2.38;;
21301;SDS011;10810;48.270;9.996;2023-05-07T12:11:32;4.38;;;2.33;;
21301;SDS011;10810;48.270;9.996;2023-05-07T12:14:00;3.25;;;2.15;;
21301;SDS011;10810;48.270;9.996;2023-05-07T12:16:27;5.03;;;2.40;;
21301;SDS011;10810;48.270;9.996;2023-05-07T12:18:55;3.55;;;2.47;;
21301;SDS011;10810;48.270;9.996;2023-05-07T12:21:25;3.40;;;2.05;;
21301;SDS011;10810;48.270;9.996;2023-05-07T12:23:54;4.07;;;2.00;;
21301;SDS011;10810;48.270;9.996;2023-05-07T12:26:22;3.03;;;2.00;;
21301;SDS011;10810;48.270;9.996;2023-05-07T12:28:51;3.17;;;2.05;;
21301;SDS011;10810;48.270;9.996;2023-05-07T12:31:18;2.28;;;1.80;;
21301;SDS011;10810;48.270;9.996;2023-05-07T12:33:46;2.92;;;1.98;;
21301;SDS011;10810;48.270;9.996;2023-05-07T12:36:13;3.03;;;2.00;;
21301;SDS011;10810;48.270;9.996;2023-05-07T12:38:42;3.30;;;1.90;;
21301;SDS011;10810;48.270;9.996;2023-05-07T12:41:09;2.50;;;1.83;;
21301;SDS011;10810;48.270;9.996;2023-05-07T12:43:39;3.38;;;1.90;;
21301;SDS011;10810;48.270;9.996;2023-05-07T12:46:09;5.22;;;2.35;;
21301;SDS011;10810;48.270;9.996;2023-05-07T12:48:38;3.60;;;2.00;;
21301;SDS011;10810;48.270;9.996;2023-05-07T12:51:10;2.83;;;2.05;;
21301;SDS011;10810;48.270;9.996;2023-05-07T12:53:39;2.45;;;1.90;;
21301;SDS011;10810;48.270;9.996;2023-05-07T12:56:10;5.05;;;1.90;;
21301;SDS011;10810;48.270;9.996;2023-05-07T12:58:37;3.13;;;2.20;;
21301;SDS011;10810;48.270;9.996;2023-05-07T13:01:05;5.70;;;2.10;;
21301;SDS011;10810;48.270;9.996;2023-05-07T13:03:35;3.83;;;2.20;;
21301;SDS011;10810;48.270;9.996;2023-05-07T13:06:04;4.07;;;2.42;;
21301;SDS011;10810;48.270;9.996;2023-05-07T13:08:35;3.30;;;2.25;;
21301;SDS011;10810;48.270;9.996;2023-05-07T13:11:07;4.63;;;2.55;;
21301;SDS011;10810;48.270;9.996;2023-05-07T13:13:35;3.35;;;2.10;;
21301;SDS011;10810;48.270;9.996;2023-05-07T13:16:04;3.40;;;2.08;;
21301;SDS011;10810;48.270;9.996;2023-05-07T13:18:34;4.07;;;2.03;;
21301;SDS011;10810;48.270;9.996;2023-05-07T13:21:01;3.28;;;1.92;;
21301;SDS011;10810;48.270;9.996;2023-05-07T13:23:29;3.97;;;2.15;;
21301;SDS011;10810;48.270;9.996;2023-05-07T13:25:58;2.88;;;2.20;;
21301;SDS011;10810;48.270;9.996;2023-05-07T13:28:26;2.42;;;1.92;;
21301;SDS011;10810;48.270;9.996;2023-05-07T13:30:53;2.67;;;1.98;;
21301;SDS011;10810;48.270;9.996;2023-05-07T13:33:20;3.22;;;2.05;;
21301;SDS011;10810;48.270;9.996;2023-05-07T13:35:49;3.40;;;2.00;;
21301;SDS011;10810;48.270;9.996;2023-05-07T13:38:16;4.65;;;2.40;;
21301;SDS011;10810;48.270;9.996;2023-05-07T13:40:43;2.58;;;2.13;;
21301;SDS011;10810;48.270;9.996;2023-05-07T13:43:11;3.40;;;2.10;;
21301;SDS011;10810;48.270;9.996;2023-05-07T13:45:44;3.65;;;2.20;;
21301;SDS011;10810;48.270;9.996;2023-05-07T13:48:11;6.03;;;2.13;;
21301;SDS011;10810;48.270;9.996;2023-05-07T13:50:39;3.08;;;1.92;;
21301;SDS011;10810;48.270;9.996;2023-05-07T13:53:07;3.65;;;2.25;;
21301;SDS011;10810;48.270;9.996;2023-05-07T13:55:34;3.72;;;2.33;;
21301;SDS011;10810;48.270;9.996;2023-05-07T13:58:02;5.10;;;2.15;;
21301;SDS011;10810;48.270;9.996;2023-05-07T14:00:29;3.22;;;2.03;;
21301;SDS011;10810;48.270;9.996;2023-05-07T14:02:57;4.13;;;2.30;;
21301;SDS011;10810;48.270;9.996;2023-05-07T14:05:30;2.85;;;1.80;;
21301;SDS011;10810;48.270;9.996;2023-05-07T14:08:11;2.67;;;1.90;;
21301;SDS011;10810;48.270;9.996;2023-05-07T14:10:40;4.13;;;2.13;;
21301;SDS011;10810;48.270;9.996;2023-05-07T14:13:07;3.20;;;2.10;;
21301;SDS011;10810;48.270;9.996;2023-05-07T14:15:34;3.17;;;2.20;;
21301;SDS011;10810;48.270;9.996;2023-05-07T14:20:45;5.38;;;2.25;;
21301;SDS011;10810;48.270;9.996;2023-05-07T14:23:13;3.38;;;2.20;;
21301;SDS011;10810;48.270;9.996;2023-05-07T14:25:44;3.13;;;2.00;;
21301;SDS011;10810;48.270;9.996;2023-05-07T14:28:12;3.40;;;2.30;;
21301;SDS011;10810;48.270;9.996;2023-05-07T14:30:39;3.55;;;2.22;;
21301;SDS011;10810;48.270;9.996;2023-05-07T14:33:06;4.15;;;2.33;;
21301;SDS011;10810;48.270;9.996;2023-05-07T14:35:35;5.22;;;2.58;;
21301;SDS011;10810;48.270;9.996;2023-05-07T14:38:02;5.03;;;2.40;;
21301;SDS011;10810;48.270;9.996;2023-05-07T14:40:29;5.60;;;3.03;;
21301;SDS011;10810;48.270;9.996;2023-05-07T14:42:56;9.63;;;3.27;;
21301;SDS011;10810;48.270;9.996;2023-05-07T14:45:23;9.37;;;3.60;;
21301;SDS011;10810;48.270;9.996;2023-05-07T14:47:50;5.17;;;2.60;;
21301;SDS011;10810;48.270;9.996;2023-05-07T14:50:17;7.63;;;3.00;;
21301;SDS011;10810;48.270;9.996;2023-05-07T14:52:45;7.00;;;2.93;;
21301;SDS011;10810;48.270;9.996;2023-05-07T14:55:14;6.40;;;3.00;;
21301;SDS011;10810;48.270;9.996;2023-05-07T14:57:43;7.60;;;3.00;;
21301;SDS011;10810;48.270;9.996;2023-05-07T15:00:11;7.30;;;3.13;;
21301;SDS011;10810;48.270;9.996;2023-05-07T15:02:40;5.30;;;3.20;;
21301;SDS011;10810;48.270;9.996;2023-05-07T15:05:07;5.13;;;3.13;;
21301;SDS011;10810;48.270;9.996;2023-05-07T15:07:34;4.73;;;2.93;;
21301;SDS011;10810;48.270;9.996;2023-05-07T15:10:06;6.30;;;3.60;;
21301;SDS011;10810;48.270;9.996;2023-05-07T15:12:41;9.53;;;3.90;;
21301;SDS011;10810;48.270;9.996;2023-05-07T15:15:20;9.50;;;5.60;;
21301;SDS011;10810;48.270;9.996;2023-05-07T15:17:47;7.10;;;4.33;;
21301;SDS011;10810;48.270;9.996;2023-05-07T15:20:20;7.20;;;4.30;;
21301;SDS011;10810;48.270;9.996;2023-05-07T15:22:47;8.03;;;3.70;;
21301;SDS011;10810;48.270;9.996;2023-05-07T15:25:15;9.27;;;4.57;;
21301;SDS011;10810;48.270;9.996;2023-05-07T15:27:44;7.80;;;4.23;;
21301;SDS011;10810;48.270;9.996;2023-05-07T15:30:13;10.17;;;5.10;;
21301;SDS011;10810;48.270;9.996;2023-05-07T15:32:56;7.83;;;4.23;;
21301;SDS011;10810;48.270;9.996;2023-05-07T15:35:58;7.07;;;4.00;;
21301;SDS011;10810;48.270;9.996;2023-05-07T15:41:58;7.83;;;3.87;;
21301;SDS011;10810;48.270;9.996;2023-05-07T15:44:56;3.47;;;2.33;;
21301;SDS011;10810;48.270;9.996;2023-05-07T15:47:27;3.97;;;2.53;;
21301;SDS011;10810;48.270;9.996;2023-05-07T15:51:15;6.47;;;2.50;;
21301;SDS011;10810;48.270;9.996;2023-05-07T15:53:48;3.43;;;2.20;;
21301;SDS011;10810;48.270;9.996;2023-05-07T15:59:42;2.70;;;1.43;;
21301;SDS011;10810;48.270;9.996;2023-05-07T16:02:12;4.30;;;1.27;;
21301;SDS011;10810;48.270;9.996;2023-05-07T16:05:03;6.43;;;2.00;;
21301;SDS011;10810;48.270;9.996;2023-05-07T16:07:36;4.70;;;1.97;;
21301;SDS011;10810;48.270;9.996;2023-05-07T16:10:08;7.63;;;1.97;;
21301;SDS011;10810;48.270;9.996;2023-05-07T16:12:38;6.33;;;2.20;;
21301;SDS011;10810;48.270;9.996;2023-05-07T16:15:23;3.90;;;1.77;;
21301;SDS011;10810;48.270;9.996;2023-05-07T16:17:50;4.37;;;2.00;;
21301;SDS011;10810;48.270;9.996;2023-05-07T16:22:04;5.10;;;2.43;;
21301;SDS011;10810;48.270;9.996;2023-05-07T16:23:18;5.90;;;1.93;;
21301;SDS011;10810;48.270;9.996;2023-05-07T16:28:38;3.97;;;1.70;;
21301;SDS011;10810;48.270;9.996;2023-05-07T16:31:21;5.20;;;1.83;;
21301;SDS011;10810;48.270;9.996;2023-05-07T16:33:55;3.03;;;1.93;;
21301;SDS011;10810;48.270;9.996;2023-05-07T16:38:20;5.83;;;2.37;;